sensor_id;sensor_type;location;lat;lon;timestamp;pressure;altitude;pressure_sealevel;temperature;humidity
72721;BME280;60835;50.974;10.322;2024-03-23T00:54:42;96712.31;;;8.22;100.00
72721;BME280;60835;50.974;10.322;2024-03-23T00:57:08;96692.63;;;8.32;100.00
72721;BME280;60835;50.974;10.322;2024-03-23T00:59:33;96671.63;;;8.24;100.00
72721;BME280;60835;50.974;10.322;2024-03-23T01:01:59;96608.69;;;8.00;100.00
72721;BME280;60835;50.974;10.322;2024-03-23T01:04:24;96647.59;;;8.27;100.00
72721;BME280;60835;50.974;10.322;2024-03-23T01:06:50;96602.06;;;8.04;100.00
72721;BME280;60835;50.974;10.322;2024-03-23T01:09:16;96625.41;;;8.07;100.00
72721;BME280;60835;50.974;10.322;2024-03-23T01:11:41;96583.56;;;7.83;100.00
72721;BME280;60835;50.974;10.322;2024-03-23T01:14:07;96484.00;;;7.13;100.00
72721;BME280;60835;50.974;10.322;2024-03-23T01:16:32;96544.81;;;7.77;100.00
72721;BME280;60835;50.974;10.322;2024-03-23T01:18:58;96562.13;;;8.01;100.00
72721;BME280;60835;50.974;10.322;2024-03-23T01:21:24;96534.91;;;7.93;100.00
72721;BME280;60835;50.974;10.322;2024-03-23T01:23:49;96544.50;;;7.86;100.00
72721;BME280;60835;50.974;10.322;2024-03-23T01:26:15;96557.88;;;7.85;100.00
72721;BME280;60835;50.974;10.322;2024-03-23T01:28:41;96551.06;;;7.90;100.00
72721;BME280;60835;50.974;10.322;2024-03-23T01:31:07;96530.81;;;7.91;100.00
72721;BME280;60835;50.974;10.322;2024-03-23T01:33:32;96563.69;;;7.66;100.00
72721;BME280;60835;50.974;10.322;2024-03-23T01:35:58;96490.94;;;7.44;100.00
72721;BME280;60835;50.974;10.322;2024-03-23T01:38:23;96493.53;;;7.73;100.00
72721;BME280;60835;50.974;10.322;2024-03-23T01:40:49;96495.66;;;7.98;100.00
72721;BME280;60835;50.974;10.322;2024-03-23T01:43:14;96450.03;;;7.77;100.00
72721;BME280;60835;50.974;10.322;2024-03-23T01:45:40;96421.94;;;7.63;100.00
72721;BME280;60835;50.974;10.322;2024-03-23T01:48:06;96455.59;;;8.03;100.00
72721;BME280;60835;50.974;10.322;2024-03-23T01:50:32;96437.53;;;8.00;100.00
72721;BME280;60835;50.974;10.322;2024-03-23T01:53:02;96397.50;;;8.05;100.00
72721;BME280;60835;50.974;10.322;2024-03-23T01:55:28;96400.31;;;8.24;100.00
72721;BME280;60835;50.974;10.322;2024-03-23T01:57:56;96369.44;;;8.18;100.00
72721;BME280;60835;50.974;10.322;2024-03-23T02:00:22;96404.22;;;8.49;100.00
72721;BME280;60835;50.974;10.322;2024-03-23T02:02:48;96358.50;;;8.15;100.00
72721;BME280;60835;50.974;10.322;2024-03-23T02:05:14;96392.41;;;8.45;100.00
72721;BME280;60835;50.974;10.322;2024-03-23T02:07:40;96449.25;;;8.54;100.00
72721;BME280;60835;50.974;10.322;2024-03-23T02:10:07;96484.38;;;8.62;100.00
72721;BME280;60835;50.974;10.322;2024-03-23T02:12:33;96490.13;;;8.44;100.00
72721;BME280;60835;50.974;10.322;2024-03-23T02:14:59;96517.91;;;8.68;100.00
72721;BME280;60835;50.974;10.322;2024-03-23T02:17:25;96532.31;;;8.72;100.00
72721;BME280;60835;50.974;10.322;2024-03-23T02:19:51;96551.09;;;8.62;100.00
72721;BME280;60835;50.974;10.322;2024-03-23T02:22:16;96563.72;;;8.67;100.00
72721;BME280;60835;50.974;10.322;2024-03-23T02:24:42;96591.47;;;8.84;100.00
72721;BME280;60835;50.974;10.322;2024-03-23T02:27:08;96596.38;;;8.87;100.00
72721;BME280;60835;50.974;10.322;2024-03-23T02:29:33;96610.94;;;8.83;100.00
72721;BME280;60835;50.974;10.322;2024-03-23T02:31:59;96657.03;;;9.08;100.00
72721;BME280;60835;50.974;10.322;2024-03-23T02:34:25;96660.69;;;9.07;100.00
72721;BME280;60835;50.974;10.322;2024-03-23T02:36:51;96650.03;;;9.00;100.00
72721;BME280;60835;50.974;10.322;2024-03-23T02:39:16;96649.25;;;9.00;100.00
72721;BME280;60835;50.974;10.322;2024-03-23T02:41:43;96609.41;;;8.95;100.00
72721;BME280;60835;50.974;10.322;2024-03-23T02:44:09;96633.94;;;9.10;100.00
72721;BME280;60835;50.974;10.322;2024-03-23T02:46:38;96632.34;;;9.15;100.00
72721;BME280;60835;50.974;10.322;2024-03-23T02:49:03;96635.25;;;9.21;100.00
72721;BME280;60835;50.974;10.322;2024-03-23T02:51:30;96647.47;;;9.28;100.00
72721;BME280;60835;50.974;10.322;2024-03-23T02:53:55;96600.88;;;8.93;100.00
72721;BME280;60835;50.974;10.322;2024-03-23T02:56:21;96629.88;;;9.14;100.00
72721;BME280;60835;50.974;10.322;2024-03-23T02:58:47;96638.06;;;9.19;100.00
72721;BME280;60835;50.974;10.322;2024-03-23T03:01:12;96607.69;;;9.02;100.00
72721;BME280;60835;50.974;10.322;2024-03-23T03:03:38;96615.50;;;9.16;100.00
72721;BME280;60835;50.974;10.322;2024-03-23T03:06:04;96627.22;;;9.07;100.00
72721;BME280;60835;50.974;10.322;2024-03-23T03:08:30;96638.94;;;9.05;100.00
72721;BME280;60835;50.974;10.322;2024-03-23T03:10:56;96622.47;;;9.03;100.00
72721;BME280;60835;50.974;10.322;2024-03-23T03:13:21;96657.03;;;9.08;100.00
72721;BME280;60835;50.974;10.322;2024-03-23T03:15:47;96655.03;;;9.10;100.00
72721;BME280;60835;50.974;10.322;2024-03-23T03:18:13;96669.81;;;8.90;100.00
72721;BME280;60835;50.974;10.322;2024-03-23T03:20:41;96693.13;;;8.72;100.00
72721;BME280;60835;50.974;10.322;2024-03-23T03:23:07;96664.53;;;8.54;100.00
72721;BME280;60835;50.974;10.322;2024-03-23T03:25:33;96662.56;;;8.92;100.00
72721;BME280;60835;50.974;10.322;2024-03-23T03:27:59;96675.91;;;8.90;100.00
72721;BME280;60835;50.974;10.322;2024-03-23T03:30:24;96673.84;;;8.86;100.00
72721;BME280;60835;50.974;10.322;2024-03-23T03:32:52;96637.78;;;8.72;100.00
72721;BME280;60835;50.974;10.322;2024-03-23T03:35:18;96645.91;;;8.91;100.00
72721;BME280;60835;50.974;10.322;2024-03-23T03:37:44;96700.59;;;9.04;100.00
72721;BME280;60835;50.974;10.322;2024-03-23T03:40:10;96689.66;;;8.86;100.00
72721;BME280;60835;50.974;10.322;2024-03-23T03:42:36;96726.09;;;8.97;100.00
72721;BME280;60835;50.974;10.322;2024-03-23T03:45:02;96773.56;;;8.97;100.00
72721;BME280;60835;50.974;10.322;2024-03-23T03:47:30;96767.38;;;8.90;100.00
72721;BME280;60835;50.974;10.322;2024-03-23T03:49:56;96783.75;;;9.00;100.00
72721;BME280;60835;50.974;10.322;2024-03-23T03:52:21;96795.94;;;8.72;100.00
72721;BME280;60835;50.974;10.322;2024-03-23T03:54:47;96747.03;;;8.69;100.00
72721;BME280;60835;50.974;10.322;2024-03-23T03:57:13;96739.97;;;8.55;100.00
72721;BME280;60835;50.974;10.322;2024-03-23T03:59:39;96740.25;;;8.45;100.00
72721;BME280;60835;50.974;10.322;2024-03-23T04:02:04;96741.63;;;8.41;100.00
72721;BME280;60835;50.974;10.322;2024-03-23T04:04:30;96706.53;;;8.41;100.00
72721;BME280;60835;50.974;10.322;2024-03-23T04:07:02;96700.53;;;8.62;100.00
72721;BME280;60835;50.974;10.322;2024-03-23T04:09:28;96721.41;;;8.63;100.00
72721;BME280;60835;50.974;10.322;2024-03-23T04:11:53;96697.88;;;8.62;100.00
72721;BME280;60835;50.974;10.322;2024-03-23T04:14:19;96703.97;;;8.62;100.00
72721;BME280;60835;50.974;10.322;2024-03-23T04:16:45;96732.41;;;8.67;100.00
72721;BME280;60835;50.974;10.322;2024-03-23T04:19:10;96739.16;;;8.54;100.00
72721;BME280;60835;50.974;10.322;2024-03-23T04:21:37;96737.16;;;8.56;100.00
72721;BME280;60835;50.974;10.322;2024-03-23T04:24:03;96742.78;;;8.53;100.00
72721;BME280;60835;50.974;10.322;2024-03-23T04:26:29;96734.88;;;8.53;100.00
72721;BME280;60835;50.974;10.322;2024-03-23T04:28:55;96725.25;;;8.31;100.00
72721;BME280;60835;50.974;10.322;2024-03-23T04:31:20;96718.97;;;8.32;100.00
72721;BME280;60835;50.974;10.322;2024-03-23T04:33:47;96676.63;;;8.19;100.00
72721;BME280;60835;50.974;10.322;2024-03-23T04:36:13;96703.53;;;8.29;100.00
72721;BME280;60835;50.974;10.322;2024-03-23T04:38:38;96687.38;;;8.47;100.00
72721;BME280;60835;50.974;10.322;2024-03-23T04:41:04;96694.34;;;8.54;100.00
72721;BME280;60835;50.974;10.322;2024-03-23T04:43:30;96645.75;;;8.42;100.00
72721;BME280;60835;50.974;10.322;2024-03-23T04:45:56;96680.22;;;8.77;100.00
72721;BME280;60835;50.974;10.322;2024-03-23T04:48:22;96622.50;;;8.31;100.00
72721;BME280;60835;50.974;10.322;2024-03-23T04:50:48;96668.69;;;8.63;100.00
72721;BME280;60835;50.974;10.322;2024-03-23T04:53:15;96662.00;;;8.82;100.00
72721;BME280;60835;50.974;10.322;2024-03-23T04:55:42;96669.75;;;8.83;100.00
72721;BME280;60835;50.974;10.322;2024-03-23T04:58:08;96633.03;;;8.46;100.00
72721;BME280;60835;50.974;10.322;2024-03-23T05:00:33;96639.63;;;8.56;100.00
72721;BME280;60835;50.974;10.322;2024-03-23T05:02:59;96595.78;;;8.34;100.00
72721;BME280;60835;50.974;10.322;2024-03-23T05:05:24;96622.75;;;8.51;100.00
72721;BME280;60835;50.974;10.322;2024-03-23T05:07:50;96577.22;;;8.42;100.00
72721;BME280;60835;50.974;10.322;2024-03-23T05:10:16;96549.53;;;8.46;100.00
72721;BME280;60835;50.974;10.322;2024-03-23T05:12:41;96528.19;;;8.41;100.00
72721;BME280;60835;50.974;10.322;2024-03-23T05:15:07;96513.03;;;8.29;100.00
72721;BME280;60835;50.974;10.322;2024-03-23T05:17:33;96500.75;;;8.00;100.00
72721;BME280;60835;50.974;10.322;2024-03-23T05:19:59;96414.63;;;7.94;100.00
72721;BME280;60835;50.974;10.322;2024-03-23T05:22:25;96453.44;;;7.92;100.00
72721;BME280;60835;50.974;10.322;2024-03-23T05:24:51;96461.91;;;8.02;100.00
72721;BME280;60835;50.974;10.322;2024-03-23T05:27:16;96450.84;;;8.13;100.00
72721;BME280;60835;50.974;10.322;2024-03-23T05:29:42;96445.66;;;7.98;100.00
72721;BME280;60835;50.974;10.322;2024-03-23T05:32:07;96386.28;;;7.96;100.00
72721;BME280;60835;50.974;10.322;2024-03-23T05:34:33;96367.59;;;7.91;100.00
72721;BME280;60835;50.974;10.322;2024-03-23T05:36:59;96351.44;;;7.94;100.00
72721;BME280;60835;50.974;10.322;2024-03-23T05:39:24;96353.78;;;7.89;100.00
72721;BME280;60835;50.974;10.322;2024-03-23T05:41:50;96322.59;;;7.86;100.00
72721;BME280;60835;50.974;10.322;2024-03-23T05:44:16;96324.41;;;7.85;100.00
72721;BME280;60835;50.974;10.322;2024-03-23T05:46:42;96332.44;;;7.98;100.00
72721;BME280;60835;50.974;10.322;2024-03-23T05:49:08;96371.22;;;7.90;100.00
72721;BME280;60835;50.974;10.322;2024-03-23T05:51:33;96347.28;;;8.06;100.00
72721;BME280;60835;50.974;10.322;2024-03-23T05:53:59;96351.56;;;8.07;100.00
72721;BME280;60835;50.974;10.322;2024-03-23T05:56:24;96355.38;;;7.83;100.00
72721;BME280;60835;50.974;10.322;2024-03-23T05:58:51;96347.19;;;7.78;100.00
72721;BME280;60835;50.974;10.322;2024-03-23T06:01:17;96353.78;;;7.89;100.00
72721;BME280;60835;50.974;10.322;2024-03-23T06:03:43;96367.22;;;7.94;100.00
72721;BME280;60835;50.974;10.322;2024-03-23T06:06:10;96310.78;;;7.40;100.00
72721;BME280;60835;50.974;10.322;2024-03-23T06:08:37;96306.47;;;7.53;100.00
72721;BME280;60835;50.974;10.322;2024-03-23T06:11:04;96346.53;;;7.70;100.00
72721;BME280;60835;50.974;10.322;2024-03-23T06:13:34;96329.13;;;7.33;100.00
72721;BME280;60835;50.974;10.322;2024-03-23T06:16:01;96375.34;;;7.57;100.00
72721;BME280;60835;50.974;10.322;2024-03-23T06:18:26;96369.88;;;7.22;100.00
72721;BME280;60835;50.974;10.322;2024-03-23T06:20:53;96419.44;;;7.25;100.00
72721;BME280;60835;50.974;10.322;2024-03-23T06:23:19;96392.44;;;7.02;100.00
72721;BME280;60835;50.974;10.322;2024-03-23T06:25:46;96327.81;;;6.49;100.00
72721;BME280;60835;50.974;10.322;2024-03-23T06:28:12;96444.81;;;6.89;100.00
72721;BME280;60835;50.974;10.322;2024-03-23T06:30:38;96468.00;;;6.71;100.00
72721;BME280;60835;50.974;10.322;2024-03-23T06:33:03;96473.84;;;6.36;100.00
72721;BME280;60835;50.974;10.322;2024-03-23T06:35:31;96490.22;;;6.46;100.00
72721;BME280;60835;50.974;10.322;2024-03-23T06:37:56;96503.41;;;6.38;100.00
72721;BME280;60835;50.974;10.322;2024-03-23T06:40:23;96506.63;;;6.17;100.00
72721;BME280;60835;50.974;10.322;2024-03-23T06:42:49;96491.66;;;6.26;100.00
72721;BME280;60835;50.974;10.322;2024-03-23T06:45:16;96537.34;;;6.17;100.00
72721;BME280;60835;50.974;10.322;2024-03-23T06:47:42;96531.50;;;5.98;100.00
72721;BME280;60835;50.974;10.322;2024-03-23T06:50:08;96563.06;;;5.90;100.00
72721;BME280;60835;50.974;10.322;2024-03-23T06:52:35;96588.63;;;5.80;100.00
72721;BME280;60835;50.974;10.322;2024-03-23T06:55:01;96600.50;;;5.68;100.00
72721;BME280;60835;50.974;10.322;2024-03-23T06:57:29;96599.25;;;5.48;100.00
72721;BME280;60835;50.974;10.322;2024-03-23T06:59:55;96606.78;;;5.43;100.00
72721;BME280;60835;50.974;10.322;2024-03-23T07:02:21;96630.84;;;5.54;100.00
72721;BME280;60835;50.974;10.322;2024-03-23T07:04:46;96650.34;;;5.60;100.00
72721;BME280;60835;50.974;10.322;2024-03-23T07:07:12;96649.03;;;5.56;100.00
72721;BME280;60835;50.974;10.322;2024-03-23T07:09:37;96641.69;;;5.19;100.00
72721;BME280;60835;50.974;10.322;2024-03-23T07:12:04;96622.19;;;5.14;100.00
72721;BME280;60835;50.974;10.322;2024-03-23T07:14:30;96632.72;;;4.98;100.00
72721;BME280;60835;50.974;10.322;2024-03-23T07:16:55;96671.00;;;4.99;100.00
72721;BME280;60835;50.974;10.322;2024-03-23T07:19:21;96668.09;;;5.10;100.00
72721;BME280;60835;50.974;10.322;2024-03-23T07:21:46;96675.06;;;4.77;100.00
72721;BME280;60835;50.974;10.322;2024-03-23T07:24:13;96701.31;;;5.09;100.00
72721;BME280;60835;50.974;10.322;2024-03-23T07:26:38;96669.41;;;4.98;100.00
72721;BME280;60835;50.974;10.322;2024-03-23T07:29:06;96705.09;;;5.07;100.00
72721;BME280;60835;50.974;10.322;2024-03-23T07:31:32;96690.81;;;4.85;100.00
72721;BME280;60835;50.974;10.322;2024-03-23T07:33:57;96689.66;;;4.87;100.00
72721;BME280;60835;50.974;10.322;2024-03-23T07:36:23;96704.44;;;4.97;100.00
72721;BME280;60835;50.974;10.322;2024-03-23T07:38:48;96662.81;;;4.77;100.00
72721;BME280;60835;50.974;10.322;2024-03-23T07:41:16;96714.28;;;5.11;100.00
72721;BME280;60835;50.974;10.322;2024-03-23T07:43:45;96739.50;;;5.12;100.00
72721;BME280;60835;50.974;10.322;2024-03-23T07:46:11;96720.19;;;5.29;100.00
72721;BME280;60835;50.974;10.322;2024-03-23T07:48:38;96707.25;;;5.35;100.00
72721;BME280;60835;50.974;10.322;2024-03-23T07:51:06;96701.19;;;5.27;100.00
72721;BME280;60835;50.974;10.322;2024-03-23T07:53:32;96688.75;;;5.45;100.00
72721;BME280;60835;50.974;10.322;2024-03-23T07:56:04;96682.66;;;5.20;100.00
72721;BME280;60835;50.974;10.322;2024-03-23T07:58:30;96719.88;;;5.48;100.00
72721;BME280;60835;50.974;10.322;2024-03-23T08:00:56;96706.09;;;5.38;100.00
72721;BME280;60835;50.974;10.322;2024-03-23T08:03:22;96721.00;;;5.62;100.00
72721;BME280;60835;50.974;10.322;2024-03-23T08:05:48;96707.75;;;5.31;100.00
72721;BME280;60835;50.974;10.322;2024-03-23T08:08:14;96747.09;;;5.47;100.00
72721;BME280;60835;50.974;10.322;2024-03-23T08:10:50;96747.22;;;5.45;100.00
72721;BME280;60835;50.974;10.322;2024-03-23T08:13:17;96739.53;;;5.44;100.00
72721;BME280;60835;50.974;10.322;2024-03-23T08:15:42;96755.09;;;5.53;100.00
72721;BME280;60835;50.974;10.322;2024-03-23T08:18:09;96761.16;;;5.54;100.00
72721;BME280;60835;50.974;10.322;2024-03-23T08:20:35;96814.47;;;5.71;100.00
72721;BME280;60835;50.974;10.322;2024-03-23T08:23:01;96817.94;;;5.79;100.00
72721;BME280;60835;50.974;10.322;2024-03-23T08:25:26;96827.56;;;5.63;100.00
72721;BME280;60835;50.974;10.322;2024-03-23T08:27:52;96821.53;;;5.78;100.00
72721;BME280;60835;50.974;10.322;2024-03-23T08:30:17;96842.50;;;5.62;100.00
72721;BME280;60835;50.974;10.322;2024-03-23T08:32:44;96817.72;;;5.57;100.00
72721;BME280;60835;50.974;10.322;2024-03-23T08:35:09;96892.09;;;6.13;100.00
72721;BME280;60835;50.974;10.322;2024-03-23T08:37:35;96896.34;;;5.98;100.00
72721;BME280;60835;50.974;10.322;2024-03-23T08:40:00;96875.34;;;5.82;100.00
72721;BME280;60835;50.974;10.322;2024-03-23T08:42:26;96979.78;;;5.79;100.00
72721;BME280;60835;50.974;10.322;2024-03-23T08:44:51;96986.50;;;5.81;100.00
72721;BME280;60835;50.974;10.322;2024-03-23T08:47:17;96930.72;;;5.63;100.00
72721;BME280;60835;50.974;10.322;2024-03-23T08:49:44;96991.94;;;5.80;100.00
72721;BME280;60835;50.974;10.322;2024-03-23T08:52:10;96941.19;;;5.55;100.00
72721;BME280;60835;50.974;10.322;2024-03-23T08:54:35;96980.88;;;5.60;100.00
72721;BME280;60835;50.974;10.322;2024-03-23T08:57:01;97010.03;;;5.91;100.00
72721;BME280;60835;50.974;10.322;2024-03-23T08:59:26;97019.25;;;6.03;100.00
72721;BME280;60835;50.974;10.322;2024-03-23T09:01:52;97018.16;;;6.30;100.00
72721;BME280;60835;50.974;10.322;2024-03-23T09:04:18;97015.50;;;7.10;100.00
72721;BME280;60835;50.974;10.322;2024-03-23T09:06:44;97055.31;;;6.67;100.00
72721;BME280;60835;50.974;10.322;2024-03-23T09:09:09;97095.81;;;7.61;100.00
72721;BME280;60835;50.974;10.322;2024-03-23T09:11:35;97121.19;;;7.30;100.00
72721;BME280;60835;50.974;10.322;2024-03-23T09:14:01;97212.31;;;6.73;100.00
72721;BME280;60835;50.974;10.322;2024-03-23T09:16:28;97178.03;;;7.71;100.00
72721;BME280;60835;50.974;10.322;2024-03-23T09:18:53;97210.47;;;8.82;100.00
72721;BME280;60835;50.974;10.322;2024-03-23T09:21:19;97293.66;;;9.54;100.00
72721;BME280;60835;50.974;10.322;2024-03-23T09:23:45;97368.88;;;10.34;100.00
72721;BME280;60835;50.974;10.322;2024-03-23T09:26:11;97342.47;;;9.27;100.00
72721;BME280;60835;50.974;10.322;2024-03-23T09:28:36;97425.00;;;9.21;100.00
72721;BME280;60835;50.974;10.322;2024-03-23T09:31:07;97407.63;;;8.47;100.00
72721;BME280;60835;50.974;10.322;2024-03-23T09:33:34;97425.03;;;7.84;100.00
72721;BME280;60835;50.974;10.322;2024-03-23T09:36:03;97414.88;;;8.21;100.00
72721;BME280;60835;50.974;10.322;2024-03-23T09:38:29;97426.09;;;8.23;100.00
72721;BME280;60835;50.974;10.322;2024-03-23T09:40:56;97396.75;;;8.18;100.00
72721;BME280;60835;50.974;10.322;2024-03-23T09:43:24;97379.97;;;8.43;100.00
72721;BME280;60835;50.974;10.322;2024-03-23T09:45:49;97406.94;;;8.86;100.00
72721;BME280;60835;50.974;10.322;2024-03-23T09:48:15;97421.38;;;9.14;100.00
72721;BME280;60835;50.974;10.322;2024-03-23T09:50:42;97456.75;;;8.65;100.00
72721;BME280;60835;50.974;10.322;2024-03-23T09:53:11;97495.28;;;8.33;100.00
72721;BME280;60835;50.974;10.322;2024-03-23T09:55:42;97496.63;;;8.70;100.00
72721;BME280;60835;50.974;10.322;2024-03-23T09:58:12;97490.69;;;8.43;100.00
72721;BME280;60835;50.974;10.322;2024-03-23T10:00:39;97471.91;;;8.87;100.00
72721;BME280;60835;50.974;10.322;2024-03-23T10:03:05;97473.53;;;8.80;100.00
72721;BME280;60835;50.974;10.322;2024-03-23T10:05:33;97441.91;;;8.55;100.00
72721;BME280;60835;50.974;10.322;2024-03-23T10:08:18;97447.50;;;8.69;100.00
72721;BME280;60835;50.974;10.322;2024-03-23T10:10:45;97457.41;;;8.42;100.00
72721;BME280;60835;50.974;10.322;2024-03-23T10:13:23;97452.19;;;7.92;100.00
72721;BME280;60835;50.974;10.322;2024-03-23T10:15:55;97458.31;;;9.06;100.00
72721;BME280;60835;50.974;10.322;2024-03-23T10:18:22;97496.63;;;8.86;100.00
72721;BME280;60835;50.974;10.322;2024-03-23T10:23:31;97497.59;;;8.36;100.00
72721;BME280;60835;50.974;10.322;2024-03-23T10:26:14;97502.06;;;8.60;100.00
72721;BME280;60835;50.974;10.322;2024-03-23T10:28:55;97528.25;;;7.54;100.00
72721;BME280;60835;50.974;10.322;2024-03-23T10:31:33;97474.25;;;7.42;100.00
72721;BME280;60835;50.974;10.322;2024-03-23T10:34:02;97492.03;;;7.48;100.00
72721;BME280;60835;50.974;10.322;2024-03-23T10:36:30;97486.91;;;7.12;100.00
72721;BME280;60835;50.974;10.322;2024-03-23T10:38:56;97507.41;;;6.83;100.00
72721;BME280;60835;50.974;10.322;2024-03-23T10:41:27;97464.78;;;6.46;100.00
72721;BME280;60835;50.974;10.322;2024-03-23T10:43:55;97403.66;;;6.44;100.00
72721;BME280;60835;50.974;10.322;2024-03-23T10:46:23;97363.53;;;6.59;100.00
72721;BME280;60835;50.974;10.322;2024-03-23T10:48:49;97375.00;;;6.50;100.00
72721;BME280;60835;50.974;10.322;2024-03-23T10:51:14;97375.44;;;6.71;100.00
72721;BME280;60835;50.974;10.322;2024-03-23T10:53:40;97389.63;;;6.53;100.00
72721;BME280;60835;50.974;10.322;2024-03-23T10:56:07;97411.94;;;6.31;100.00
72721;BME280;60835;50.974;10.322;2024-03-23T10:58:41;97354.22;;;6.99;100.00
72721;BME280;60835;50.974;10.322;2024-03-23T11:01:12;97403.28;;;7.16;100.00
72721;BME280;60835;50.974;10.322;2024-03-23T11:03:39;97440.22;;;6.55;100.00
72721;BME280;60835;50.974;10.322;2024-03-23T11:06:06;97403.88;;;7.10;100.00
72721;BME280;60835;50.974;10.322;2024-03-23T11:08:40;97402.53;;;7.40;100.00
72721;BME280;60835;50.974;10.322;2024-03-23T11:11:20;97420.47;;;7.02;100.00
72721;BME280;60835;50.974;10.322;2024-03-23T11:13:54;97422.53;;;7.74;100.00
72721;BME280;60835;50.974;10.322;2024-03-23T11:16:27;97472.88;;;8.45;100.00
72721;BME280;60835;50.974;10.322;2024-03-23T11:19:36;97541.19;;;8.23;100.00
72721;BME280;60835;50.974;10.322;2024-03-23T11:22:03;97492.81;;;8.32;100.00
72721;BME280;60835;50.974;10.322;2024-03-23T11:24:29;97555.63;;;9.01;100.00
72721;BME280;60835;50.974;10.322;2024-03-23T11:26:54;97548.38;;;8.87;100.00
72721;BME280;60835;50.974;10.322;2024-03-23T11:29:20;97534.81;;;9.30;100.00
72721;BME280;60835;50.974;10.322;2024-03-23T11:31:51;97592.22;;;9.28;100.00
72721;BME280;60835;50.974;10.322;2024-03-23T11:34:18;97580.81;;;9.99;100.00
72721;BME280;60835;50.974;10.322;2024-03-23T11:36:44;97557.81;;;10.46;100.00
72721;BME280;60835;50.974;10.322;2024-03-23T11:41:56;97585.00;;;9.77;100.00
72721;BME280;60835;50.974;10.322;2024-03-23T11:44:25;97582.97;;;9.32;100.00
72721;BME280;60835;50.974;10.322;2024-03-23T11:46:51;97583.47;;;9.36;100.00
72721;BME280;60835;50.974;10.322;2024-03-23T11:49:27;97563.75;;;10.17;100.00
72721;BME280;60835;50.974;10.322;2024-03-23T11:51:54;97511.13;;;10.98;100.00
72721;BME280;60835;50.974;10.322;2024-03-23T11:54:21;97423.00;;;12.28;100.00
72721;BME280;60835;50.974;10.322;2024-03-23T11:56:57;97221.94;;;11.26;100.00
72721;BME280;60835;50.974;10.322;2024-03-23T11:59:36;97107.38;;;11.32;100.00
72721;BME280;60835;50.974;10.322;2024-03-23T12:02:13;97090.16;;;13.25;100.00
72721;BME280;60835;50.974;10.322;2024-03-23T12:04:40;97102.19;;;10.81;100.00
72721;BME280;60835;50.974;10.322;2024-03-23T12:09:36;97220.97;;;9.21;100.00
72721;BME280;60835;50.974;10.322;2024-03-23T12:12:10;97263.59;;;9.32;100.00
72721;BME280;60835;50.974;10.322;2024-03-23T12:14:36;97256.91;;;8.91;100.00
72721;BME280;60835;50.974;10.322;2024-03-23T12:17:15;97264.63;;;9.76;100.00
72721;BME280;60835;50.974;10.322;2024-03-23T12:19:41;97210.44;;;10.47;100.00
72721;BME280;60835;50.974;10.322;2024-03-23T12:22:08;97214.66;;;10.04;100.00
72721;BME280;60835;50.974;10.322;2024-03-23T12:24:34;97224.94;;;9.62;100.00
72721;BME280;60835;50.974;10.322;2024-03-23T12:27:02;97105.59;;;11.94;100.00
72721;BME280;60835;50.974;10.322;2024-03-23T12:29:29;97235.59;;;12.42;100.00
72721;BME280;60835;50.974;10.322;2024-03-23T12:31:55;97624.13;;;12.46;100.00
72721;BME280;60835;50.974;10.322;2024-03-23T12:34:21;97999.53;;;12.87;100.00
72721;BME280;60835;50.974;10.322;2024-03-23T12:36:46;98070.56;;;12.01;100.00
72721;BME280;60835;50.974;10.322;2024-03-23T12:39:12;98035.16;;;13.15;100.00
72721;BME280;60835;50.974;10.322;2024-03-23T12:41:38;98153.03;;;13.06;100.00
72721;BME280;60835;50.974;10.322;2024-03-23T12:44:03;98147.47;;;11.52;100.00
72721;BME280;60835;50.974;10.322;2024-03-23T12:46:29;98097.66;;;11.48;100.00
72721;BME280;60835;50.974;10.322;2024-03-23T12:48:54;98113.88;;;10.88;100.00
72721;BME280;60835;50.974;10.322;2024-03-23T12:51:20;98101.09;;;10.60;100.00
72721;BME280;60835;50.974;10.322;2024-03-23T12:53:45;98091.69;;;10.65;100.00
72721;BME280;60835;50.974;10.322;2024-03-23T12:56:12;98055.66;;;10.72;100.00
72721;BME280;60835;50.974;10.322;2024-03-23T12:58:37;98041.06;;;10.44;100.00
72721;BME280;60835;50.974;10.322;2024-03-23T13:01:03;97977.66;;;9.94;100.00
72721;BME280;60835;50.974;10.322;2024-03-23T13:03:29;97938.31;;;9.33;100.00
72721;BME280;60835;50.974;10.322;2024-03-23T13:05:54;97848.47;;;9.59;100.00
72721;BME280;60835;50.974;10.322;2024-03-23T13:08:20;97675.81;;;9.11;100.00
72721;BME280;60835;50.974;10.322;2024-03-23T13:10:45;97241.81;;;8.38;100.00
72721;BME280;60835;50.974;10.322;2024-03-23T13:13:12;97478.03;;;7.97;100.00
72721;BME280;60835;50.974;10.322;2024-03-23T13:15:38;97589.22;;;7.75;100.00
72721;BME280;60835;50.974;10.322;2024-03-23T13:18:04;97585.25;;;8.46;100.00
72721;BME280;60835;50.974;10.322;2024-03-23T13:20:29;97591.97;;;9.70;100.00
72721;BME280;60835;50.974;10.322;2024-03-23T13:22:55;97514.41;;;10.63;100.00
72721;BME280;60835;50.974;10.322;2024-03-23T13:25:21;97383.19;;;10.91;100.00
72721;BME280;60835;50.974;10.322;2024-03-23T13:27:46;97236.59;;;12.06;100.00
72721;BME280;60835;50.974;10.322;2024-03-23T13:30:13;97257.16;;;10.17;100.00
72721;BME280;60835;50.974;10.322;2024-03-23T13:32:38;97290.06;;;10.15;100.00
72721;BME280;60835;50.974;10.322;2024-03-23T13:35:04;97318.50;;;9.67;100.00
72721;BME280;60835;50.974;10.322;2024-03-23T13:37:32;97291.31;;;9.36;100.00
72721;BME280;60835;50.974;10.322;2024-03-23T13:39:58;97275.84;;;8.55;100.00
72721;BME280;60835;50.974;10.322;2024-03-23T13:42:23;97398.13;;;9.48;100.00
72721;BME280;60835;50.974;10.322;2024-03-23T13:44:51;97402.69;;;8.69;100.00
72721;BME280;60835;50.974;10.322;2024-03-23T13:47:17;97298.00;;;8.30;100.00
72721;BME280;60835;50.974;10.322;2024-03-23T13:49:42;97422.00;;;9.16;100.00